Messwerte Zamboanga

Temperatur

Temperatur
°C
1574384400 9.00 9.00 31
1574388000 10.00 10.00 30
1574391600 11.00 11.00 32
1574395200 12.00 12.00 31
1574398800 13.00 13.00 32
1574402400 14.00 14.00 31
1574406000 15.00 15.00 30
1574409600 16.00 16.00 29
1574413200 17.00 17.00 29
1574416800 18.00 18.00 28
1574420400 19.00 19.00
1574424000 20.00 20.00 27
1574427600 21.00 21.00
1574431200 22.00 22.00
1574434800 23.00 23.00 26
1574438400 0.00 0.00
1574442000 1.00 1.00
1574445600 2.00 2.00 26
1574449200 3.00 3.00
1574452800 4.00 4.00
1574456400 5.00 5.00 26
1574460000 6.00 6.00 26
1574463600 7.00 7.00 26
1574467200 8.00 8.00 26

Aktuellste Messwerte

Wettercharakter
Wetter: bedeckt, wenig Regen
Temperatur
26 °C
Feuchtigkeit
90 %
Wind
5 km/h, -
Luftdruck
1012 hPa
Messzeit: 23. November 2019, 8.00Datenquelle: METAR

Weitere Messstationen in der Nähe

Messstation Temperatur Entfernung
Dumaguete 30 °C 299 km
Davao 28 °C 396 km
Sandakan 28 °C 455 km
Puerto Princesa 26 °C 485 km

Wind

Windrichtung Böen Mittelwind
° km/h km/h
1574384400 9.00 8.00 - 9.00 50° 10
1574388000 10.00 9.00 - 10.00 170° 5
1574391600 11.00 10.00 - 11.00 150° 15
1574395200 12.00 11.00 - 12.00 150° 15
1574398800 13.00 12.00 - 13.00 140° 15
1574402400 14.00 13.00 - 14.00 170° 15
1574406000 15.00 14.00 - 15.00 230° 10
1574409600 16.00 15.00 - 16.00 230° 10
1574413200 17.00 16.00 - 17.00 260° 5
1574416800 18.00 17.00 - 18.00 290° 10
1574420400 19.00 18.00 - 19.00
1574424000 20.00 19.00 - 20.00 0
1574427600 21.00 20.00 - 21.00
1574431200 22.00 21.00 - 22.00
1574434800 23.00 22.00 - 23.00 280° 5
1574438400 0.00 23.00 - 0.00
1574442000 1.00 0.00 - 1.00
1574445600 2.00 1.00 - 2.00 5
1574449200 3.00 2.00 - 3.00
1574452800 4.00 3.00 - 4.00
1574456400 5.00 4.00 - 5.00 280° 10
1574460000 6.00 5.00 - 6.00 270° 10
1574463600 7.00 6.00 - 7.00 5
1574467200 8.00 7.00 - 8.00 5

Ihre Wetterstation

Fehlt Ihre Wetterstation auf unserem Portal?

Schreiben Sie an network@meteonews.ch

Klima

Wann ist es am wärmsten? Wann regnet es am wenigsten? Unsere Klimadaten geben Auskunft.